Time;durP1;ratioP1;P1;durP2;ratioP2;P2;SDS_P1;SDS_P2;PMS_P1;PMS_P2;Temp;Humidity;BMP_temperature;BMP_pressure;BME280_temperature;BME280_humidity;BME280_pressure;Samples;Min_cycle;Max_cycle;Signal;HPM_P1;HPM_P2
2023/06/05 00:02:22;;;;;;;3.88;2.80;;;21.50;1.00;;;;;;5054400;28;20862;-48
2023/06/05 00:04:47;;;;;;;3.30;2.70;;;21.50;1.00;;;;;;5073318;28;20028;-46
2023/06/05 00:07:13;;;;;;;3.60;3.20;;;21.50;1.00;;;;;;5072077;28;20043;-47
2023/06/05 00:09:40;;;;;;;3.10;2.80;;;21.50;1.00;;;;;;5072100;28;20025;-49
2023/06/05 00:12:06;;;;;;;5.07;4.55;;;21.50;1.00;;;;;;5072637;28;20571;-47
2023/06/05 00:14:32;;;;;;;5.93;5.40;;;21.50;1.00;;;;;;5072631;28;20414;-49
2023/06/05 00:16:57;;;;;;;8.55;7.13;;;21.50;1.00;;;;;;5073236;28;20031;-49
2023/06/05 00:19:49;;;;;;;9.23;7.25;;;21.40;1.00;;;;;;5059712;28;20110;-46
2023/06/05 00:22:15;;;;;;;8.43;7.55;;;21.40;1.00;;;;;;5060435;28;20218;-47
2023/06/05 00:24:40;;;;;;;9.02;8.13;;;21.40;1.00;;;;;;5069903;28;20074;-48
2023/06/05 00:27:06;;;;;;;8.60;7.68;;;21.40;1.00;;;;;;5072779;28;20028;-46
2023/06/05 00:29:32;;;;;;;9.05;7.95;;;21.30;1.00;;;;;;5071597;28;20065;-48
2023/06/05 00:31:58;;;;;;;8.95;8.05;;;21.30;1.00;;;;;;5054189;28;20497;-46
2023/06/05 00:34:23;;;;;;;9.10;8.02;;;21.30;1.00;;;;;;5053737;28;20095;-46
2023/06/05 00:36:50;;;;;;;9.82;7.97;;;21.30;1.00;;;;;;5072061;28;20029;-48
2023/06/05 00:39:18;;;;;;;9.93;8.90;;;21.30;1.00;;;;;;5072874;28;20024;-46
2023/06/05 00:41:45;;;;;;;10.85;8.70;;;21.30;1.00;;;;;;5069910;28;20023;-45
2023/06/05 00:44:11;;;;;;;12.55;7.97;;;21.20;1.00;;;;;;5051924;28;20067;-47
2023/06/05 00:46:38;;;;;;;9.80;8.80;;;21.20;1.00;;;;;;5052118;28;20049;-48
2023/06/05 00:49:04;;;;;;;9.38;8.43;;;21.20;1.00;;;;;;5052904;28;20029;-48
2023/06/05 00:51:30;;;;;;;9.88;8.65;;;21.20;1.00;;;;;;5052243;28;20035;-50
2023/06/05 00:53:55;;;;;;;9.60;8.60;;;21.20;1.00;;;;;;5051059;28;20112;-50
2023/06/05 00:56:22;;;;;;;10.00;8.65;;;21.10;1.00;;;;;;5051599;28;20021;-50
2023/06/05 00:58:48;;;;;;;8.68;7.88;;;21.10;1.00;;;;;;5052847;28;20513;-53
2023/06/05 01:01:14;;;;;;;8.65;7.78;;;21.10;1.00;;;;;;5053659;28;20112;-47
2023/06/05 01:03:40;;;;;;;9.05;7.75;;;21.10;1.00;;;;;;5058454;28;20363;-47
2023/06/05 01:06:06;;;;;;;8.68;7.88;;;21.10;1.00;;;;;;5059782;28;20370;-51
2023/06/05 01:08:44;;;;;;;9.45;8.50;;;21.10;1.00;;;;;;5058410;28;20666;-47
2023/06/05 01:11:17;;;;;;;8.55;7.70;;;21.20;1.00;;;;;;5057916;28;20053;-49
2023/06/05 01:13:51;;;;;;;9.73;8.43;;;21.10;1.00;;;;;;5056691;28;20036;-51
2023/06/05 01:16:18;;;;;;;9.15;8.10;;;21.20;1.00;;;;;;5051066;28;20033;-46
2023/06/05 01:18:45;;;;;;;8.43;7.63;;;21.20;1.00;;;;;;5049378;28;20029;-52
2023/06/05 01:21:15;;;;;;;8.65;7.85;;;21.10;1.00;;;;;;5055492;28;20025;-48
2023/06/05 01:23:44;;;;;;;8.90;8.00;;;21.10;1.00;;;;;;5055329;28;20569;-50
2023/06/05 01:26:16;;;;;;;8.57;7.78;;;21.10;1.00;;;;;;5041055;28;20119;-48
2023/06/05 01:28:46;;;;;;;7.35;6.65;;;21.10;1.00;;;;;;5057857;28;20033;-48
2023/06/05 01:31:16;;;;;;;8.00;7.20;;;21.00;1.00;;;;;;5051063;28;20029;-47
2023/06/05 01:33:57;;;;;;;7.60;6.63;;;21.00;1.00;;;;;;5050559;28;20041;-47
2023/06/05 01:36:23;;;;;;;8.68;7.63;;;21.00;1.00;;;;;;5056388;28;20485;-52
2023/06/05 01:38:51;;;;;;;11.15;8.68;;;21.00;1.00;;;;;;5058530;28;20033;-46
2023/06/05 01:41:18;;;;;;;9.60;8.45;;;21.00;1.00;;;;;;5056956;28;20033;-46
2023/06/05 01:43:47;;;;;;;12.32;10.23;;;21.00;1.00;;;;;;5074585;28;20044;-47
2023/06/05 01:46:18;;;;;;;12.13;10.52;;;20.90;1.00;;;;;;5075188;28;20059;-46
2023/06/05 01:48:47;;;;;;;11.95;10.40;;;20.90;1.00;;;;;;5078513;28;20032;-46
2023/06/05 01:51:13;;;;;;;12.68;10.07;;;21.00;1.00;;;;;;5076809;28;20028;-48
2023/06/05 01:53:38;;;;;;;14.02;11.38;;;21.00;1.00;;;;;;5078364;28;20039;-50
2023/06/05 01:56:06;;;;;;;12.60;11.07;;;21.00;1.00;;;;;;5077159;28;20400;-48
2023/06/05 01:58:32;;;;;;;11.52;10.32;;;20.90;1.00;;;;;;5072615;28;20506;-49
2023/06/05 02:00:58;;;;;;;13.20;11.00;;;20.90;1.00;;;;;;5076464;28;20043;-50
2023/06/05 02:03:24;;;;;;;11.13;9.93;;;20.90;1.00;;;;;;5078169;28;20024;-52
2023/06/05 02:05:51;;;;;;;7.68;6.85;;;20.90;1.00;;;;;;5070702;28;20087;-52
2023/06/05 02:08:22;;;;;;;7.70;6.95;;;20.90;1.00;;;;;;5079140;28;20351;-51
2023/06/05 02:10:52;;;;;;;8.73;7.63;;;20.80;1.00;;;;;;5078141;28;20074;-51
2023/06/05 02:13:19;;;;;;;6.43;5.82;;;20.80;1.00;;;;;;5074722;28;20025;-52
2023/06/05 02:15:46;;;;;;;7.03;6.40;;;20.80;1.00;;;;;;5064228;28;20040;-52
2023/06/05 02:18:12;;;;;;;7.20;6.40;;;20.80;1.00;;;;;;5074875;28;20025;-51
2023/06/05 02:20:40;;;;;;;7.78;5.70;;;20.70;1.00;;;;;;5074789;28;20185;-51
2023/06/05 02:23:06;;;;;;;6.55;5.53;;;20.80;1.00;;;;;;5075972;28;20035;-50
2023/06/05 02:25:32;;;;;;;7.13;6.38;;;20.70;1.00;;;;;;5074411;28;20039;-51
2023/06/05 02:27:58;;;;;;;8.35;6.25;;;20.70;1.00;;;;;;5075785;28;20029;-53
2023/06/05 02:30:23;;;;;;;7.10;6.40;;;20.70;1.00;;;;;;5055690;28;20027;-51
2023/06/05 02:32:56;;;;;;;6.90;6.20;;;20.70;1.00;;;;;;5057424;28;20036;-53
2023/06/05 02:35:22;;;;;;;6.60;5.97;;;20.70;1.00;;;;;;5073304;28;20052;-53
2023/06/05 02:37:47;;;;;;;7.85;7.05;;;20.70;1.00;;;;;;5075191;28;20023;-51
2023/06/05 02:40:14;;;;;;;7.38;5.82;;;20.60;1.00;;;;;;5074291;28;20059;-52
2023/06/05 02:42:40;;;;;;;6.55;5.88;;;20.60;1.00;;;;;;5073912;28;20048;-50
2023/06/05 02:45:07;;;;;;;7.72;7.00;;;20.60;1.00;;;;;;5075141;28;20036;-50
2023/06/05 02:47:34;;;;;;;7.60;6.88;;;20.60;1.00;;;;;;5073990;28;20059;-52
2023/06/05 02:50:00;;;;;;;7.90;5.82;;;20.70;1.00;;;;;;5072684;28;20053;-50
2023/06/05 02:52:27;;;;;;;8.45;7.57;;;20.70;1.00;;;;;;5075144;28;20477;-52
2023/06/05 02:54:53;;;;;;;8.10;7.25;;;20.60;1.00;;;;;;5074440;28;20150;-51
2023/06/05 02:57:19;;;;;;;9.18;8.38;;;20.60;1.00;;;;;;5074868;28;20116;-49
2023/06/05 02:59:45;;;;;;;8.10;7.30;;;20.60;1.00;;;;;;5070943;28;20028;-49
2023/06/05 03:02:11;;;;;;;8.73;7.90;;;20.60;1.00;;;;;;5073628;28;20025;-46
2023/06/05 03:04:40;;;;;;;9.95;8.07;;;20.60;1.00;;;;;;5072720;28;20036;-48
2023/06/05 03:07:08;;;;;;;8.88;7.82;;;20.60;1.00;;;;;;5072729;28;20073;-52
2023/06/05 03:09:34;;;;;;;10.98;8.80;;;20.60;1.00;;;;;;5068161;28;20031;-51
2023/06/05 03:11:59;;;;;;;9.90;8.23;;;20.60;1.00;;;;;;5056887;28;20028;-51
2023/06/05 03:14:26;;;;;;;8.55;7.70;;;20.60;1.00;;;;;;5073776;28;20043;-53
2023/06/05 03:16:53;;;;;;;9.52;8.63;;;20.60;1.00;;;;;;5074368;28;20039;-52
2023/06/05 03:19:20;;;;;;;9.18;8.23;;;20.60;1.00;;;;;;5073198;28;20428;-49
2023/06/05 03:21:47;;;;;;;9.15;8.10;;;20.60;1.00;;;;;;5070190;28;20549;-49
2023/06/05 03:24:17;;;;;;;9.43;8.52;;;20.60;1.00;;;;;;5073917;28;20027;-53
2023/06/05 03:26:43;;;;;;;9.30;8.05;;;20.60;1.00;;;;;;5073848;28;20412;-50
2023/06/05 03:29:10;;;;;;;9.93;8.93;;;20.60;1.00;;;;;;5056076;28;20230;-49
2023/06/05 03:31:36;;;;;;;11.50;9.38;;;20.50;1.00;;;;;;5074217;28;20017;-47
2023/06/05 03:34:03;;;;;;;9.52;8.55;;;20.50;1.00;;;;;;5072073;28;20081;-51
2023/06/05 03:36:30;;;;;;;10.32;9.23;;;20.50;1.00;;;;;;5071187;28;20040;-51
2023/06/05 03:38:56;;;;;;;10.23;9.15;;;20.50;1.00;;;;;;5073348;28;20023;-53
2023/06/05 03:41:23;;;;;;;8.98;8.18;;;20.50;1.00;;;;;;5058475;28;20126;-53
2023/06/05 03:43:52;;;;;;;8.85;7.93;;;20.50;1.00;;;;;;5044756;28;20415;-49
2023/06/05 03:46:20;;;;;;;9.70;8.73;;;20.50;1.00;;;;;;5072844;28;20481;-51
2023/06/05 03:48:46;;;;;;;10.48;9.38;;;20.60;1.00;;;;;;5073998;28;20081;-49
2023/06/05 03:51:13;;;;;;;10.07;8.93;;;20.50;1.00;;;;;;5072354;28;20111;-48
2023/06/05 03:53:43;;;;;;;9.00;8.10;;;20.50;1.00;;;;;;5073756;28;20025;-52
2023/06/05 03:56:08;;;;;;;9.38;8.48;;;20.50;1.00;;;;;;5073035;28;20127;-52
2023/06/05 03:58:35;;;;;;;9.65;8.70;;;20.60;1.00;;;;;;5071763;28;20098;-51
2023/06/05 04:01:00;;;;;;;8.15;7.40;;;20.60;1.00;;;;;;5073916;28;20020;-48
2023/06/05 04:03:27;;;;;;;9.48;8.48;;;20.50;1.00;;;;;;5073121;28;20024;-51
2023/06/05 04:05:53;;;;;;;10.80;9.70;;;20.50;1.00;;;;;;5073856;28;20421;-52
2023/06/05 04:08:18;;;;;;;9.77;8.82;;;20.50;1.00;;;;;;5072441;28;20489;-46
2023/06/05 04:10:44;;;;;;;12.45;9.55;;;20.50;1.00;;;;;;5071144;28;20025;-49
2023/06/05 04:13:10;;;;;;;10.35;9.40;;;20.60;1.00;;;;;;5054645;28;20062;-50
2023/06/05 04:15:36;;;;;;;10.13;9.10;;;20.60;1.00;;;;;;5072215;28;20032;-50
2023/06/05 04:18:02;;;;;;;12.45;9.38;;;20.50;1.00;;;;;;5073009;28;20112;-48
2023/06/05 04:20:28;;;;;;;11.18;9.23;;;20.60;1.00;;;;;;5072415;28;20454;-51
2023/06/05 04:22:53;;;;;;;11.90;9.15;;;20.60;1.00;;;;;;5072513;28;20052;-45
2023/06/05 04:25:19;;;;;;;11.48;9.52;;;20.60;1.00;;;;;;5073234;28;20099;-46
2023/06/05 04:27:49;;;;;;;11.52;9.27;;;20.60;1.00;;;;;;5072654;28;20081;-46
2023/06/05 04:30:15;;;;;;;11.00;9.77;;;20.60;1.00;;;;;;5071373;28;20032;-47
2023/06/05 04:32:41;;;;;;;10.13;8.40;;;20.60;1.00;;;;;;5073153;28;20033;-46
2023/06/05 04:35:08;;;;;;;11.10;8.80;;;20.60;1.00;;;;;;5053639;28;20040;-51
2023/06/05 04:37:35;;;;;;;10.90;9.63;;;20.60;1.00;;;;;;5073317;28;20028;-47
2023/06/05 04:40:05;;;;;;;9.98;8.55;;;20.60;1.00;;;;;;5071178;28;20033;-53
2023/06/05 04:42:32;;;;;;;9.13;8.20;;;20.60;1.00;;;;;;5072932;28;20040;-49
2023/06/05 04:45:00;;;;;;;9.90;8.90;;;20.60;1.00;;;;;;5072243;28;20027;-50
2023/06/05 04:47:27;;;;;;;10.35;9.07;;;20.60;1.00;;;;;;5072832;28;20035;-51
2023/06/05 04:49:53;;;;;;;11.27;9.07;;;20.70;1.00;;;;;;5071138;28;20035;-50
2023/06/05 04:52:23;;;;;;;9.57;8.57;;;20.60;1.00;;;;;;5072748;28;20028;-49
2023/06/05 04:54:49;;;;;;;11.38;9.60;;;20.60;1.00;;;;;;5065361;28;20028;-49
2023/06/05 04:57:16;;;;;;;13.38;10.15;;;20.60;1.00;;;;;;5064388;28;20099;-50
2023/06/05 04:59:43;;;;;;;11.85;9.63;;;20.60;1.00;;;;;;5060951;28;20052;-51
2023/06/05 05:02:15;;;;;;;10.52;9.43;;;20.60;1.00;;;;;;5071176;28;20074;-47
2023/06/05 05:04:41;;;;;;;9.95;8.95;;;20.60;1.00;;;;;;5072480;28;20024;-48
2023/06/05 05:07:06;;;;;;;10.85;9.82;;;20.60;1.00;;;;;;5070045;28;20518;-49
2023/06/05 05:09:32;;;;;;;11.27;10.10;;;20.70;1.00;;;;;;5068656;28;20108;-52
2023/06/05 05:11:59;;;;;;;10.77;9.70;;;20.70;1.00;;;;;;5071511;28;20143;-47
2023/06/05 05:14:28;;;;;;;10.23;9.15;;;20.70;1.00;;;;;;5072179;28;20107;-49
2023/06/05 05:16:55;;;;;;;10.63;9.57;;;20.70;1.00;;;;;;5068582;28;20037;-50
2023/06/05 05:19:21;;;;;;;9.48;7.85;;;20.70;1.00;;;;;;5071538;28;20063;-46
2023/06/05 05:21:47;;;;;;;9.20;8.25;;;20.70;1.00;;;;;;5048625;28;20032;-47
2023/06/05 05:24:14;;;;;;;10.10;7.90;;;20.70;1.00;;;;;;5063717;28;20037;-53
2023/06/05 05:26:39;;;;;;;8.85;7.97;;;20.70;1.00;;;;;;5065648;28;20063;-51
2023/06/05 05:29:06;;;;;;;7.82;7.13;;;20.70;1.00;;;;;;5071204;28;20377;-52
2023/06/05 05:31:31;;;;;;;9.25;6.00;;;20.70;1.00;;;;;;5062086;28;20033;-53
2023/06/05 05:33:58;;;;;;;5.90;4.93;;;20.70;1.00;;;;;;5064242;28;20039;-55
2023/06/05 05:36:25;;;;;;;5.18;4.15;;;20.70;1.00;;;;;;5068671;28;20535;-51
2023/06/05 05:38:51;;;;;;;4.93;4.43;;;20.70;1.00;;;;;;5071926;28;20029;-50
2023/06/05 05:41:16;;;;;;;5.65;4.30;;;20.70;1.00;;;;;;5071086;28;20032;-51
2023/06/05 05:43:42;;;;;;;6.18;5.57;;;20.70;1.00;;;;;;5072372;28;20052;-55
2023/06/05 05:46:07;;;;;;;7.70;6.03;;;20.70;1.00;;;;;;5067173;28;20032;-52
2023/06/05 05:48:37;;;;;;;7.22;6.00;;;20.70;1.00;;;;;;5075251;28;20031;-53
2023/06/05 05:51:05;;;;;;;9.43;6.70;;;20.70;1.00;;;;;;5056395;28;20031;-51
2023/06/05 05:53:31;;;;;;;8.77;7.97;;;20.70;1.00;;;;;;5075195;28;20027;-51
2023/06/05 05:55:57;;;;;;;8.35;7.55;;;20.70;1.00;;;;;;5056594;28;20082;-55
2023/06/05 05:58:23;;;;;;;12.68;9.85;;;20.70;1.00;;;;;;5076080;28;20099;-54
2023/06/05 06:00:48;;;;;;;7.32;5.53;;;20.70;1.00;;;;;;5073964;28;20021;-61
2023/06/05 06:03:15;;;;;;;7.82;6.45;;;20.60;1.00;;;;;;5069763;28;20023;-50
2023/06/05 06:05:41;;;;;;;8.10;5.97;;;20.70;1.00;;;;;;5059916;28;20502;-52
2023/06/05 06:08:07;;;;;;;6.05;5.40;;;20.60;1.00;;;;;;5068386;28;20032;-51
2023/06/05 06:10:34;;;;;;;7.00;5.60;;;20.70;1.00;;;;;;5073362;28;20032;-51
2023/06/05 06:13:00;;;;;;;6.78;6.07;;;20.70;1.00;;;;;;5056083;28;20032;-49
2023/06/05 06:15:27;;;;;;;7.53;5.93;;;20.60;1.00;;;;;;5075445;28;20024;-51
2023/06/05 06:17:53;;;;;;;8.07;6.47;;;20.60;1.00;;;;;;5074588;28;20035;-49
2023/06/05 06:20:18;;;;;;;8.45;7.55;;;20.70;1.00;;;;;;5073072;28;20060;-48
2023/06/05 06:22:44;;;;;;;7.68;6.88;;;20.70;1.00;;;;;;5074633;28;20044;-53
2023/06/05 06:25:12;;;;;;;8.65;7.28;;;20.70;1.00;;;;;;5072019;28;20133;-54
2023/06/05 06:27:38;;;;;;;8.07;7.00;;;20.60;1.00;;;;;;5075634;28;20428;-54
2023/06/05 06:30:05;;;;;;;7.82;7.03;;;20.60;1.00;;;;;;5074274;28;20029;-52
2023/06/05 06:32:30;;;;;;;8.27;7.47;;;20.60;1.00;;;;;;5075327;28;20032;-52
2023/06/05 06:34:57;;;;;;;7.80;6.78;;;20.60;1.00;;;;;;5074387;28;20098;-53
2023/06/05 06:37:22;;;;;;;10.75;7.97;;;20.60;1.00;;;;;;5074318;28;20432;-49
2023/06/05 06:39:49;;;;;;;8.38;7.50;;;20.60;1.00;;;;;;5067453;28;20033;-53
2023/06/05 06:42:14;;;;;;;8.80;7.07;;;20.70;1.00;;;;;;5074894;28;20097;-51
2023/06/05 06:44:40;;;;;;;10.80;8.32;;;20.60;1.00;;;;;;5039061;28;20115;-52
2023/06/05 06:47:08;;;;;;;12.20;8.95;;;20.70;1.00;;;;;;5074894;28;20035;-49
2023/06/05 06:49:38;;;;;;;10.65;8.93;;;20.60;1.00;;;;;;5061267;28;20045;-51
2023/06/05 06:52:03;;;;;;;10.50;8.55;;;20.70;1.00;;;;;;5074611;28;20161;-51
2023/06/05 06:54:29;;;;;;;8.75;7.75;;;20.70;1.00;;;;;;5072865;28;20111;-50
2023/06/05 06:56:56;;;;;;;8.65;6.90;;;20.70;1.00;;;;;;5069252;28;20550;-53
2023/06/05 06:59:22;;;;;;;9.10;6.47;;;20.70;1.00;;;;;;5071703;28;20038;-53
2023/06/05 07:02:20;;;;;;;6.90;6.18;;;20.70;1.00;;;;;;5073531;28;20817;-51
2023/06/05 07:04:48;;;;;;;8.25;6.38;;;20.80;1.00;;;;;;5074969;28;20031;-53
2023/06/05 07:07:16;;;;;;;8.00;6.53;;;20.80;1.00;;;;;;5073908;28;20484;-43
2023/06/05 07:09:43;;;;;;;7.70;6.47;;;20.80;1.00;;;;;;5072016;28;20358;-44
2023/06/05 07:12:10;;;;;;;8.15;6.95;;;20.80;1.00;;;;;;5056090;28;20043;-44
2023/06/05 07:14:35;;;;;;;8.85;6.40;;;20.80;1.00;;;;;;5071952;28;20119;-43
2023/06/05 07:17:02;;;;;;;9.85;7.50;;;20.80;1.00;;;;;;5074652;28;20451;-45
2023/06/05 07:19:32;;;;;;;9.23;7.05;;;20.80;1.00;;;;;;5071844;28;20039;-46
2023/06/05 07:21:59;;;;;;;9.15;7.57;;;20.90;1.00;;;;;;5072786;28;20031;-47
2023/06/05 07:24:25;;;;;;;8.63;7.80;;;20.90;1.00;;;;;;5069540;28;20025;-41
2023/06/05 07:27:04;;;;;;;11.23;7.07;;;20.90;1.00;;;;;;5072713;28;20485;-42
2023/06/05 07:29:30;;;;;;;9.02;7.20;;;21.00;1.00;;;;;;5058584;28;20024;-42
2023/06/05 07:31:58;;;;;;;9.63;8.63;;;21.00;1.00;;;;;;5073921;28;20063;-42
2023/06/05 07:34:25;;;;;;;10.18;7.97;;;21.00;1.00;;;;;;5065479;28;20036;-54
2023/06/05 07:36:51;;;;;;;10.82;7.72;;;21.00;1.00;;;;;;5064729;28;20036;-53
2023/06/05 07:39:19;;;;;;;10.13;8.05;;;21.00;1.00;;;;;;5069310;28;20108;-56
2023/06/05 07:41:45;;;;;;;10.63;8.35;;;21.00;1.00;;;;;;5070449;28;20035;-49
2023/06/05 07:44:15;;;;;;;8.00;7.15;;;21.00;1.00;;;;;;5070570;28;20131;-49
2023/06/05 07:46:42;;;;;;;9.77;7.65;;;21.00;1.00;;;;;;5072901;28;20028;-59
2023/06/05 07:49:09;;;;;;;9.27;8.32;;;21.10;1.00;;;;;;5073677;28;20025;-50
2023/06/05 07:51:36;;;;;;;9.05;7.90;;;21.00;1.00;;;;;;5072030;28;20029;-43
2023/06/05 07:54:07;;;;;;;8.73;7.80;;;20.90;1.00;;;;;;5072396;28;20036;-48
2023/06/05 07:56:33;;;;;;;9.45;8.25;;;21.00;1.00;;;;;;5052563;28;20043;-57
2023/06/05 07:59:00;;;;;;;9.98;8.45;;;21.00;1.00;;;;;;5062142;28;20543;-55
2023/06/05 08:01:27;;;;;;;10.55;9.45;;;21.00;1.00;;;;;;5071625;28;20029;-44
2023/06/05 08:03:53;;;;;;;11.10;8.70;;;21.00;1.00;;;;;;5072804;28;20020;-44
2023/06/05 08:06:19;;;;;;;11.18;9.45;;;21.00;1.00;;;;;;5073582;28;20029;-45
2023/06/05 08:08:45;;;;;;;14.52;10.80;;;21.10;1.00;;;;;;5072385;28;20382;-46
2023/06/05 08:11:11;;;;;;;11.63;10.05;;;21.10;1.00;;;;;;5070477;28;20020;-45
2023/06/05 08:13:38;;;;;;;12.27;10.65;;;21.10;1.00;;;;;;5071957;28;20079;-60
2023/06/05 08:16:04;;;;;;;13.45;10.95;;;21.10;1.00;;;;;;5073621;28;20064;-65
2023/06/05 08:18:30;;;;;;;15.23;12.30;;;21.20;1.00;;;;;;5072347;28;20024;-63
2023/06/05 08:20:55;;;;;;;17.25;12.38;;;21.20;1.00;;;;;;5073569;28;20526;-55
2023/06/05 08:23:21;;;;;;;15.82;12.25;;;21.20;1.00;;;;;;5069855;28;20369;-53
2023/06/05 08:25:48;;;;;;;14.07;12.68;;;21.20;1.00;;;;;;5073483;28;20413;-48
2023/06/05 08:28:15;;;;;;;14.93;13.38;;;21.20;1.00;;;;;;5070940;28;20025;-63
2023/06/05 08:30:41;;;;;;;15.05;12.55;;;21.20;1.00;;;;;;5073245;28;20082;-52
2023/06/05 08:33:07;;;;;;;13.35;11.95;;;21.30;1.00;;;;;;5070954;28;20093;-50
2023/06/05 08:35:32;;;;;;;13.68;12.27;;;21.30;1.00;;;;;;5070024;28;20481;-48
2023/06/05 08:37:58;;;;;;;17.27;14.88;;;21.30;1.00;;;;;;5071985;28;20017;-47
2023/06/05 08:40:28;;;;;;;15.80;14.20;;;21.30;1.00;;;;;;5071429;28;20028;-55
2023/06/05 08:42:54;;;;;;;15.85;14.30;;;21.30;1.00;;;;;;5072762;28;20067;-49
2023/06/05 08:45:20;;;;;;;17.73;14.45;;;21.30;1.00;;;;;;5070314;28;20056;-59
2023/06/05 08:47:50;;;;;;;15.48;13.85;;;21.10;1.00;;;;;;5070361;28;20489;-50
2023/06/05 08:50:16;;;;;;;17.10;14.95;;;21.00;1.00;;;;;;5070508;28;20024;-50
2023/06/05 08:52:43;;;;;;;17.98;16.00;;;21.10;1.00;;;;;;5055007;28;20082;-62
2023/06/05 08:55:10;;;;;;;16.92;15.13;;;21.10;1.00;;;;;;5071948;28;20033;-68
2023/06/05 08:57:40;;;;;;;16.73;15.13;;;21.40;1.00;;;;;;5069433;28;20025;-49
2023/06/05 09:00:09;;;;;;;18.40;15.75;;;21.40;1.00;;;;;;5058924;28;20024;-60
2023/06/05 09:02:39;;;;;;;17.58;15.77;;;21.60;1.00;;;;;;5063250;28;20028;-53
2023/06/05 09:05:05;;;;;;;19.20;17.05;;;21.30;1.00;;;;;;5069871;28;20086;-55
2023/06/05 09:07:32;;;;;;;19.75;17.75;;;21.40;1.00;;;;;;5073971;28;20031;-58
2023/06/05 09:09:58;;;;;;;19.73;17.63;;;21.40;1.00;;;;;;5068707;28;20027;-48
2023/06/05 09:12:25;;;;;;;19.27;17.25;;;21.50;1.00;;;;;;5065774;28;20025;-54
2023/06/05 09:14:51;;;;;;;19.85;17.80;;;21.60;1.00;;;;;;5071121;28;20036;-60
2023/06/05 09:17:17;;;;;;;18.63;16.70;;;21.60;1.00;;;;;;5071910;28;20012;-55
2023/06/05 09:19:44;;;;;;;19.08;17.08;;;21.70;1.00;;;;;;5071523;28;20494;-69
2023/06/05 09:22:12;;;;;;;18.88;16.90;;;21.70;1.00;;;;;;5069468;28;20013;-68
2023/06/05 09:24:40;;;;;;;17.63;15.82;;;21.80;1.00;;;;;;5075009;28;20028;-61
2023/06/05 09:27:17;;;;;;;18.65;16.73;;;21.70;1.00;;;;;;5070802;28;20023;-56
2023/06/05 09:29:44;;;;;;;17.58;15.30;;;21.70;1.00;;;;;;5057384;28;20182;-54
2023/06/05 09:32:23;;;;;;;16.58;14.80;;;21.60;1.00;;;;;;5057643;28;20077;-62
2023/06/05 09:35:05;;;;;;;17.52;15.73;;;21.60;1.00;;;;;;5074865;28;20136;-61
2023/06/05 09:37:35;;;;;;;17.45;14.77;;;21.60;1.00;;;;;;5073022;28;20020;-63
2023/06/05 09:40:01;;;;;;;18.40;16.45;;;21.60;1.00;;;;;;5072262;28;20114;-59
2023/06/05 09:42:34;;;;;;;17.08;15.30;;;21.60;1.00;;;;;;5071554;28;20453;-60
2023/06/05 09:45:00;;;;;;;16.83;15.23;;;21.70;1.00;;;;;;5074440;28;20436;-63
2023/06/05 09:47:26;;;;;;;15.60;14.10;;;21.70;1.00;;;;;;5071355;28;20029;-57
2023/06/05 09:49:52;;;;;;;16.10;14.30;;;21.80;1.00;;;;;;5074786;28;20065;-74
2023/06/05 09:52:18;;;;;;;14.35;12.88;;;21.80;1.00;;;;;;5075310;28;20031;-57
2023/06/05 09:54:45;;;;;;;14.57;13.07;;;21.70;1.00;;;;;;5074438;28;20027;-59
2023/06/05 09:57:13;;;;;;;14.02;12.73;;;21.80;1.00;;;;;;5074969;28;20367;-58
2023/06/05 10:00:04;;;;;;;14.85;13.43;;;21.70;1.00;;;;;;5074747;28;20444;-59
2023/06/05 10:02:35;;;;;;;15.43;13.90;;;21.70;1.00;;;;;;5072441;28;20098;-58
2023/06/05 10:05:03;;;;;;;15.23;13.70;;;21.70;1.00;;;;;;5056665;28;20377;-59
2023/06/05 10:07:35;;;;;;;16.10;14.15;;;21.80;1.00;;;;;;5075182;28;20068;-61
2023/06/05 10:10:01;;;;;;;16.13;14.63;;;22.00;1.00;;;;;;5074897;28;20535;-61
2023/06/05 10:12:30;;;;;;;14.45;13.13;;;22.10;1.00;;;;;;5056752;28;20020;-61
2023/06/05 10:14:57;;;;;;;14.20;12.80;;;22.20;1.00;;;;;;5055919;28;20029;-66
2023/06/05 10:17:23;;;;;;;13.95;12.55;;;22.30;1.00;;;;;;5056358;28;20131;-72
2023/06/05 10:19:50;;;;;;;13.63;12.23;;;22.40;1.00;;;;;;5071689;28;20023;-74
2023/06/05 10:22:17;;;;;;;13.90;12.50;;;22.50;1.00;;;;;;5074339;28;20063;-62
2023/06/05 10:24:47;;;;;;;12.88;11.73;;;22.50;1.00;;;;;;5056712;28;20412;-72
2023/06/05 10:27:34;;;;;;;11.98;10.77;;;22.50;1.00;;;;;;5069951;28;20048;-51
2023/06/05 10:30:23;;;;;;;13.45;12.02;;;22.60;1.00;;;;;;5074453;28;20729;-55
2023/06/05 10:33:17;;;;;;;13.40;12.05;;;22.60;1.00;;;;;;5072731;28;20028;-59
2023/06/05 10:36:18;;;;;;;11.82;10.70;;;22.50;1.00;;;;;;5074086;28;20040;-52
2023/06/05 10:38:45;;;;;;;13.95;12.65;;;22.60;1.00;;;;;;5074060;28;20024;-53
2023/06/05 10:41:11;;;;;;;12.48;11.18;;;22.80;1.00;;;;;;5072669;28;20134;-56
2023/06/05 10:43:55;;;;;;;10.65;9.75;;;23.00;1.00;;;;;;5082449;28;20056;-51
2023/06/05 10:46:26;;;;;;;13.43;10.63;;;23.00;1.00;;;;;;5068022;28;20047;-48
2023/06/05 10:49:15;;;;;;;12.82;11.40;;;23.00;1.00;;;;;;5077904;28;20024;-53
2023/06/05 10:51:46;;;;;;;14.25;11.18;;;23.10;1.00;;;;;;5065523;28;20499;-47
2023/06/05 10:54:21;;;;;;;12.68;11.48;;;23.30;1.00;;;;;;5047671;28;20025;-51
2023/06/05 10:57:05;;;;;;;12.68;11.38;;;23.20;1.00;;;;;;5072506;28;20085;-47
2023/06/05 10:59:39;;;;;;;10.75;9.50;;;23.20;1.00;;;;;;5072129;28;20718;-47
2023/06/05 11:04:48;;;;;;;10.82;9.65;;;23.70;1.00;;;;;;5074647;28;20378;-49
2023/06/05 11:07:17;;;;;;;9.55;8.63;;;24.00;1.00;;;;;;5074688;28;20382;-47
2023/06/05 11:10:01;;;;;;;14.27;11.82;;;23.90;1.00;;;;;;5072956;28;20048;-52
2023/06/05 11:12:51;;;;;;;8.50;7.70;;;24.10;1.00;;;;;;5074292;28;20021;-48
2023/06/05 11:15:36;;;;;;;8.00;7.22;;;24.10;1.00;;;;;;5072881;28;20039;-49
2023/06/05 11:18:31;;;;;;;9.75;8.90;;;23.70;1.00;;;;;;5074220;28;20031;-50
2023/06/05 11:20:58;;;;;;;9.50;8.63;;;23.60;1.00;;;;;;5072443;28;20052;-47
2023/06/05 11:23:27;;;;;;;9.85;8.95;;;23.70;1.00;;;;;;5073240;28;20559;-47
2023/06/05 11:25:56;;;;;;;8.52;7.82;;;23.80;1.00;;;;;;5074375;28;20031;-50
2023/06/05 11:29:05;;;;;;;9.52;8.52;;;23.70;1.00;;;;;;5068735;28;20055;-49
2023/06/05 11:31:31;;;;;;;8.20;7.38;;;23.60;1.00;;;;;;5065713;28;20025;-50
2023/06/05 11:33:57;;;;;;;9.60;8.80;;;23.70;1.00;;;;;;5073934;28;20469;-50
2023/06/05 11:36:24;;;;;;;10.00;9.10;;;23.60;1.00;;;;;;5068189;28;20032;-49
2023/06/05 11:38:55;;;;;;;9.45;8.55;;;23.50;1.00;;;;;;5065045;28;20037;-51
2023/06/05 11:41:21;;;;;;;8.50;7.80;;;23.60;1.00;;;;;;5072123;28;20082;-49
2023/06/05 11:43:47;;;;;;;5.78;5.32;;;23.90;1.00;;;;;;5073721;28;20048;-52
2023/06/05 11:46:13;;;;;;;6.15;5.55;;;24.20;1.00;;;;;;5070629;28;20103;-49
2023/06/05 11:48:45;;;;;;;6.78;6.25;;;24.20;1.00;;;;;;5073699;28;20112;-49
2023/06/05 11:51:11;;;;;;;6.03;5.50;;;24.60;1.00;;;;;;5070952;28;20025;-49
2023/06/05 11:53:47;;;;;;;6.05;5.55;;;24.90;1.00;;;;;;5065845;28;20038;-47
2023/06/05 11:56:16;;;;;;;6.22;5.63;;;24.60;1.00;;;;;;5060241;28;20047;-49
2023/06/05 11:58:42;;;;;;;7.60;5.68;;;24.40;1.00;;;;;;5073868;28;20035;-47
2023/06/05 12:01:12;;;;;;;6.13;5.53;;;24.40;1.00;;;;;;5070560;28;20094;-47
2023/06/05 12:03:39;;;;;;;4.05;3.75;;;25.70;1.00;;;;;;5072778;28;20429;-48
2023/06/05 12:06:05;;;;;;;5.20;4.25;;;25.20;1.00;;;;;;5055532;28;20025;-49
2023/06/05 12:08:34;;;;;;;4.22;3.63;;;25.10;1.00;;;;;;5070688;28;20032;-51
2023/06/05 12:11:04;;;;;;;4.97;4.53;;;25.00;1.00;;;;;;5044961;28;20032;-50
2023/06/05 12:14:06;;;;;;;4.10;3.40;;;25.90;1.00;;;;;;5073428;28;20028;-48
2023/06/05 12:16:39;;;;;;;4.55;4.20;;;27.20;99.90;;;;;;4990059;28;20050;-58
2023/06/05 12:19:18;;;;;;;4.60;3.45;;;27.40;99.90;;;;;;5059890;28;20090;-45
2023/06/05 12:21:45;;;;;;;3.40;3.15;;;27.10;99.90;;;;;;5069151;28;20024;-47
2023/06/05 12:24:11;;;;;;;3.20;2.90;;;26.50;99.90;;;;;;5073405;28;20036;-44
2023/06/05 12:26:59;;;;;;;4.57;3.17;;;26.40;99.90;;;;;;5072435;28;20036;-48
2023/06/05 12:29:38;;;;;;;3.13;2.85;;;26.40;99.90;;;;;;5067781;28;20402;-46
2023/06/05 12:32:23;;;;;;;3.05;2.70;;;26.30;99.90;;;;;;5071466;28;20017;-48
2023/06/05 12:34:54;;;;;;;2.60;2.40;;;25.80;99.90;;;;;;5053078;28;20064;-46
2023/06/05 12:37:25;;;;;;;2.15;2.05;;;26.00;99.90;;;;;;5046536;28;20032;-45
2023/06/05 12:40:00;;;;;;;2.80;2.58;;;26.20;99.90;;;;;;5065410;28;20093;-49
2023/06/05 12:42:26;;;;;;;2.67;2.47;;;26.60;99.90;;;;;;5065503;28;20044;-44
2023/06/05 12:44:51;;;;;;;2.67;2.40;;;26.50;99.90;;;;;;5073406;28;20439;-44
2023/06/05 12:47:17;;;;;;;2.38;2.17;;;27.20;99.90;;;;;;5070967;28;20595;-55
2023/06/05 12:49:43;;;;;;;2.25;2.05;;;28.40;99.90;;;;;;5054786;28;20046;-50
2023/06/05 12:52:08;;;;;;;2.60;2.40;;;29.30;99.90;;;;;;5061460;28;20025;-60
2023/06/05 12:54:36;;;;;;;2.00;1.90;;;28.50;99.90;;;;;;5072975;28;20024;-60
2023/06/05 12:57:02;;;;;;;3.97;2.17;;;28.70;99.90;;;;;;5068231;28;20024;-60
2023/06/05 12:59:28;;;;;;;2.40;1.85;;;28.60;99.90;;;;;;5073169;28;20104;-60
2023/06/05 13:01:53;;;;;;;2.35;1.88;;;29.40;99.90;;;;;;5071381;28;20480;-60